Terminal Aerodrome Forecast
Issued by NWS Louisville, KY

Home | Current Version | Previous Version | Text Only | Print | Product List | Glossary On
Versions: 1 2 3 4 5 6 7 8 9 10 11 12 13 14 15 16 17 18 19
000
FTUS43 KLMK 230750 AAA
TAFBWG
TAF AMD
KBWG 230750Z 2308/2406 09014KT 6SM -RA OVC040 WS020/11049KT
     FM230900 11013KT 6SM -RA OVC022
     FM231400 12012KT P6SM VCSH OVC025
     FM232000 11010KT P6SM VCSH BKN035
     FM240300 10007KT P6SM -SHRA OVC025=

USA.gov is the U.S. government's official web portal to all federal, state and local government web resources and services.